Time;durP1;ratioP1;P1;durP2;ratioP2;P2;SDS_P1;SDS_P2;PMS_P1;PMS_P2;Temp;Humidity;BMP_temperature;BMP_pressure;BME280_temperature;BME280_humidity;BME280_pressure;Samples;Min_cycle;Max_cycle;Signal;HPM_P1;HPM_P2
2021/09/09 00:00:47;;;;;;;8.98;5.15;;;;;;;16.28;45.63;101390.28;5038673;28;20437;-68
2021/09/09 00:03:14;;;;;;;9.70;5.50;;;;;;;16.29;45.60;101384.06;5020284;28;20066;-67
2021/09/09 00:05:40;;;;;;;8.07;5.03;;;;;;;16.20;45.83;101376.69;5038729;28;20513;-69
2021/09/09 00:08:07;;;;;;;8.25;5.50;;;;;;;16.14;45.86;101372.59;5038657;28;20280;-69
2021/09/09 00:10:37;;;;;;;7.88;5.55;;;;;;;16.11;45.95;101374.56;5037874;28;20095;-68
2021/09/09 00:13:03;;;;;;;11.95;5.55;;;;;;;15.96;46.11;101369.16;5037152;28;20486;-68
2021/09/09 00:15:30;;;;;;;10.45;5.65;;;;;;;15.90;46.36;101366.84;5037591;28;20090;-69
2021/09/09 00:17:56;;;;;;;11.57;5.95;;;;;;;15.76;46.49;101375.50;5035593;28;20555;-69
2021/09/09 00:20:23;;;;;;;8.02;5.60;;;;;;;16.01;46.00;101371.56;5035611;28;20030;-67
2021/09/09 00:22:48;;;;;;;10.43;6.82;;;;;;;15.96;45.94;101366.50;5046979;28;20041;-69
2021/09/09 00:25:15;;;;;;;12.57;6.65;;;;;;;15.98;45.77;101362.00;5037965;28;20040;-69
2021/09/09 00:27:41;;;;;;;8.32;5.78;;;;;;;16.03;45.90;101355.66;5039969;28;20036;-70
2021/09/09 00:30:07;;;;;;;8.07;5.65;;;;;;;15.87;45.89;101351.22;5037443;28;20033;-70
2021/09/09 00:32:34;;;;;;;13.90;6.65;;;;;;;15.89;45.94;101353.78;5036280;28;20033;-66
2021/09/09 00:35:00;;;;;;;14.52;6.22;;;;;;;15.83;46.01;101346.19;5037630;28;20041;-68
2021/09/09 00:37:27;;;;;;;10.00;6.78;;;;;;;15.75;46.35;101342.19;5037950;28;20501;-67
2021/09/09 00:39:52;;;;;;;13.05;6.75;;;;;;;15.73;46.42;101344.06;5037745;28;20036;-70
2021/09/09 00:42:18;;;;;;;14.73;7.07;;;;;;;15.77;46.27;101347.38;5038742;28;20517;-69
2021/09/09 00:44:43;;;;;;;10.90;6.80;;;;;;;15.82;46.28;101340.06;5037040;28;20036;-68
2021/09/09 00:47:11;;;;;;;14.73;7.28;;;;;;;15.79;46.32;101334.94;5037287;28;20045;-68
2021/09/09 00:49:42;;;;;;;8.45;6.35;;;;;;;15.69;46.72;101331.13;5036007;28;20033;-68
2021/09/09 00:52:09;;;;;;;8.95;6.65;;;;;;;15.69;46.42;101331.97;5039532;28;20132;-68
2021/09/09 00:54:35;;;;;;;12.32;6.78;;;;;;;15.70;46.53;101333.66;5037326;28;20096;-68
2021/09/09 00:57:03;;;;;;;12.25;7.45;;;;;;;15.63;46.67;101329.66;5037467;28;20513;-69
2021/09/09 00:59:31;;;;;;;13.23;7.55;;;;;;;15.58;46.73;101336.97;5036982;28;20156;-68
2021/09/09 01:01:57;;;;;;;14.15;6.15;;;;;;;15.56;46.66;101337.06;5039688;28;20107;-69
2021/09/09 01:04:23;;;;;;;12.57;7.03;;;;;;;15.44;47.18;101324.56;5038496;28;20086;-69
2021/09/09 01:06:49;;;;;;;11.30;6.38;;;;;;;15.48;47.25;101330.50;5044010;28;20043;-68
2021/09/09 01:09:15;;;;;;;9.50;6.78;;;;;;;15.47;47.16;101324.38;5041272;28;20068;-69
2021/09/09 01:11:40;;;;;;;12.23;6.50;;;;;;;15.58;46.79;101329.09;5039417;28;20044;-68
2021/09/09 01:14:08;;;;;;;9.00;6.35;;;;;;;15.48;47.02;101331.38;5041001;28;20041;-68
2021/09/09 01:16:34;;;;;;;14.35;7.57;;;;;;;15.52;46.97;101327.59;5037902;28;20057;-68
2021/09/09 01:19:01;;;;;;;13.07;6.72;;;;;;;15.58;46.77;101329.94;5041503;28;20040;-68
2021/09/09 01:21:26;;;;;;;11.40;6.32;;;;;;;15.51;46.95;101320.66;5039637;28;20049;-68
2021/09/09 01:23:56;;;;;;;10.65;6.90;;;;;;;15.56;46.86;101323.03;5041490;28;20095;-69
2021/09/09 01:26:27;;;;;;;9.35;6.47;;;;;;;15.54;46.92;101320.47;5041077;28;20397;-68
2021/09/09 01:28:59;;;;;;;14.25;7.05;;;;;;;15.51;46.82;101317.19;5041098;28;20033;-68
2021/09/09 01:31:24;;;;;;;;;;;;;;;15.49;47.01;101314.63;5037835;28;20393;-69
2021/09/09 01:33:55;;;;;;;9.32;6.30;;;;;;;15.52;46.84;101316.22;5039280;28;19916;-68
2021/09/09 01:36:21;;;;;;;8.38;6.63;;;;;;;15.45;46.91;101313.06;5038211;28;20454;-69
2021/09/09 01:38:47;;;;;;;12.50;6.20;;;;;;;15.49;46.94;101317.25;5040807;28;20063;-69
2021/09/09 01:41:12;;;;;;;8.35;6.90;;;;;;;15.39;47.23;101316.03;5037516;28;20047;-72
2021/09/09 01:43:37;;;;;;;12.23;6.95;;;;;;;15.38;47.21;101312.56;5040590;28;20025;-71
2021/09/09 01:46:03;;;;;;;8.93;6.18;;;;;;;15.42;47.09;101310.63;5038448;28;20137;-71
2021/09/09 01:48:29;;;;;;;11.20;6.72;;;;;;;15.34;47.29;101312.81;5040359;28;20612;-71
2021/09/09 01:50:55;;;;;;;10.50;6.55;;;;;;;15.31;47.34;101303.28;5039938;28;20071;-70
2021/09/09 01:53:20;;;;;;;10.25;6.10;;;;;;;15.31;47.46;101303.28;5038640;28;20865;-70
2021/09/09 01:55:46;;;;;;;8.10;6.57;;;;;;;15.32;47.60;101304.13;5040293;28;20112;-70
2021/09/09 01:58:11;;;;;;;9.80;6.13;;;;;;;15.28;47.45;101302.59;5039696;28;20128;-70
2021/09/09 02:00:37;;;;;;;13.32;7.03;;;;;;;15.28;47.49;101302.59;5040188;28;20029;-69
2021/09/09 02:03:03;;;;;;;18.23;7.80;;;;;;;15.26;47.47;101300.06;5049667;28;20048;-70
2021/09/09 02:05:28;;;;;;;14.55;7.15;;;;;;;15.20;47.75;101310.03;5043159;28;20060;-70
2021/09/09 02:07:54;;;;;;;11.57;7.00;;;;;;;15.15;47.75;101302.38;5020642;28;20060;-69
2021/09/09 02:10:19;;;;;;;19.98;7.85;;;;;;;15.06;48.17;101301.06;5038101;28;20041;-67
2021/09/09 02:12:49;;;;;;;12.05;7.55;;;;;;;15.06;48.01;101302.81;5044490;28;20095;-68
2021/09/09 02:15:15;;;;;;;12.18;6.90;;;;;;;15.04;48.39;101294.19;5040214;28;20497;-68
2021/09/09 02:17:41;;;;;;;9.07;7.18;;;;;;;15.06;48.28;101282.66;5039968;28;20442;-68
2021/09/09 02:20:13;;;;;;;12.85;7.60;;;;;;;15.04;48.47;101289.78;5037555;28;20037;-68
2021/09/09 02:22:39;;;;;;;13.55;7.30;;;;;;;15.01;48.40;101284.66;5040862;28;20570;-70
2021/09/09 02:25:06;;;;;;;10.07;6.90;;;;;;;15.04;48.32;101278.41;5038664;28;20132;-70
2021/09/09 02:27:31;;;;;;;11.15;7.15;;;;;;;15.02;48.40;101280.25;5049893;28;20060;-69
2021/09/09 02:29:57;;;;;;;11.15;7.72;;;;;;;14.97;48.57;101283.13;5037587;28;20067;-69
2021/09/09 02:32:22;;;;;;;9.60;7.60;;;;;;;15.04;48.28;101281.88;5039980;28;20037;-69
2021/09/09 02:34:48;;;;;;;11.40;7.13;;;;;;;14.99;48.59;101275.97;5043467;28;20033;-69
2021/09/09 02:37:13;;;;;;;10.65;7.00;;;;;;;15.00;48.78;101276.84;5039175;28;20036;-69
2021/09/09 02:39:40;;;;;;;9.63;6.53;;;;;;;14.91;48.74;101272.91;5037362;28;20112;-69
2021/09/09 02:42:06;;;;;;;12.32;7.75;;;;;;;14.91;49.05;101267.66;5036553;28;20056;-68
2021/09/09 02:44:32;;;;;;;11.07;7.13;;;;;;;14.91;49.02;101270.28;5044879;28;20025;-69
2021/09/09 02:46:57;;;;;;;7.10;6.30;;;;;;;14.89;49.19;101277.41;5039451;28;20032;-69
2021/09/09 02:49:23;;;;;;;11.63;7.30;;;;;;;14.91;49.12;101267.66;5036885;28;20049;-70
2021/09/09 02:51:48;;;;;;;13.00;7.03;;;;;;;14.86;49.25;101264.41;5038359;28;20043;-69
2021/09/09 02:54:14;;;;;;;11.13;7.32;;;;;;;14.89;49.56;101264.25;5039862;28;20064;-70
2021/09/09 02:56:39;;;;;;;13.68;7.72;;;;;;;14.89;49.59;101264.25;5051986;28;20108;-70
2021/09/09 02:59:05;;;;;;;14.63;8.05;;;;;;;14.90;49.26;101263.31;5036046;28;20037;-70
2021/09/09 03:01:30;;;;;;;11.57;7.72;;;;;;;14.90;49.38;101250.13;5038596;28;20056;-68
2021/09/09 03:03:56;;;;;;;15.23;7.28;;;;;;;14.90;49.23;101260.66;5035089;28;20037;-67
2021/09/09 03:06:21;;;;;;;11.15;7.88;;;;;;;14.79;49.36;101249.84;5036061;28;20103;-67
2021/09/09 03:08:47;;;;;;;17.60;7.57;;;;;;;14.86;49.54;101246.00;5037740;28;20494;-69
2021/09/09 03:11:12;;;;;;;11.75;7.32;;;;;;;14.86;49.81;101244.22;5036814;28;20036;-69
2021/09/09 03:13:37;;;;;;;11.73;8.68;;;;;;;14.84;49.51;101239.97;5038580;28;20026;-71
2021/09/09 03:16:03;;;;;;;11.23;7.50;;;;;;;14.73;49.78;101236.09;5039335;28;20116;-68
2021/09/09 03:18:29;;;;;;;10.88;8.07;;;;;;;14.63;50.09;101237.50;5037651;28;20436;-68
2021/09/09 03:20:55;;;;;;;9.63;6.97;;;;;;;14.73;50.00;101225.56;5040228;28;20044;-69
2021/09/09 03:23:21;;;;;;;14.45;7.90;;;;;;;14.71;50.06;101224.78;5040210;28;20030;-69
2021/09/09 03:25:46;;;;;;;11.10;7.30;;;;;;;14.72;50.06;101216.00;5043245;28;20493;-70
2021/09/09 03:28:12;;;;;;;11.90;7.65;;;;;;;14.66;50.21;101210.19;5037492;28;20041;-70
2021/09/09 03:30:37;;;;;;;12.18;7.63;;;;;;;14.67;50.30;101210.09;5037658;28;20396;-69
2021/09/09 03:33:03;;;;;;;14.60;8.05;;;;;;;14.60;50.53;101213.97;5034724;28;20475;-69
2021/09/09 03:35:29;;;;;;;11.75;7.88;;;;;;;14.59;50.31;101201.78;5040817;28;20032;-69
2021/09/09 03:37:54;;;;;;;12.65;8.68;;;;;;;14.57;50.60;101187.84;5036783;28;20264;-70
2021/09/09 03:40:19;;;;;;;16.92;9.23;;;;;;;14.53;50.84;101195.03;5036837;28;20124;-69
2021/09/09 03:42:45;;;;;;;11.75;8.07;;;;;;;14.65;50.22;101198.81;5038002;28;20021;-73
2021/09/09 03:45:10;;;;;;;15.05;9.35;;;;;;;14.62;50.35;101200.75;5034489;28;20038;-69
2021/09/09 03:47:36;;;;;;;16.15;8.45;;;;;;;14.54;50.69;101201.13;5041013;28;20048;-70
2021/09/09 03:50:02;;;;;;;13.32;8.98;;;;;;;14.57;50.72;101198.38;5036908;28;20055;-70
2021/09/09 03:52:28;;;;;;;12.02;8.10;;;;;;;14.54;50.47;101190.63;5039929;28;20064;-70
2021/09/09 03:54:53;;;;;;;13.38;8.65;;;;;;;14.49;50.83;101193.50;5039777;28;20060;-70
2021/09/09 03:57:19;;;;;;;14.98;8.73;;;;;;;14.50;50.77;101196.97;5039213;28;20049;-70
2021/09/09 03:59:44;;;;;;;13.18;8.70;;;;;;;14.45;51.22;101188.47;5042614;28;20110;-70
2021/09/09 04:02:09;;;;;;;12.45;8.60;;;;;;;14.35;51.33;101196.78;5039425;28;20033;-69
2021/09/09 04:04:35;;;;;;;15.88;10.18;;;;;;;14.33;51.36;101187.28;5036025;28;20113;-67
2021/09/09 04:07:00;;;;;;;13.65;7.88;;;;;;;14.40;51.16;101182.56;5038340;28;20032;-67
2021/09/09 04:09:26;;;;;;;14.48;9.43;;;;;;;14.31;51.29;101184.72;5036693;28;20087;-67
2021/09/09 04:11:51;;;;;;;12.75;8.95;;;;;;;14.30;51.31;101185.66;5038180;28;20051;-66
2021/09/09 04:14:17;;;;;;;21.33;9.70;;;;;;;14.26;51.31;101185.91;5034263;28;20111;-66
2021/09/09 04:16:43;;;;;;;16.00;9.75;;;;;;;14.20;51.44;101173.06;5036892;28;20037;-66
2021/09/09 04:19:08;;;;;;;15.40;9.43;;;;;;;14.21;51.55;101180.88;5046182;28;20313;-67
2021/09/09 04:21:34;;;;;;;17.17;9.40;;;;;;;14.20;51.79;101171.28;5037596;28;20040;-68
2021/09/09 04:23:59;;;;;;;13.52;9.05;;;;;;;14.15;51.51;101168.88;5038131;28;20079;-67
2021/09/09 04:26:25;;;;;;;13.18;9.27;;;;;;;14.10;51.97;101170.91;5039140;28;20323;-68
2021/09/09 04:28:50;;;;;;;13.98;9.43;;;;;;;14.06;51.86;101163.25;5038005;28;20075;-67
2021/09/09 04:31:16;;;;;;;17.73;9.75;;;;;;;14.06;51.78;101161.47;5035929;28;20029;-68
2021/09/09 04:33:41;;;;;;;15.45;9.38;;;;;;;14.08;51.85;101164.88;5036358;28;20314;-68
2021/09/09 04:36:07;;;;;;;14.27;9.98;;;;;;;14.11;52.00;101155.97;5036023;28;20116;-67
2021/09/09 04:38:33;;;;;;;12.82;9.05;;;;;;;14.15;51.99;101157.53;5055580;28;20053;-67
2021/09/09 04:40:58;;;;;;;14.35;10.40;;;;;;;14.08;51.94;101158.78;5041880;28;20039;-69
2021/09/09 04:43:23;;;;;;;14.82;10.00;;;;;;;14.08;51.98;101157.00;5039970;28;20021;-68
2021/09/09 04:45:49;;;;;;;19.13;10.38;;;;;;;14.03;51.81;101158.13;5039967;28;20504;-70
2021/09/09 04:48:14;;;;;;;15.77;9.60;;;;;;;13.97;51.96;101156.69;5039846;28;20041;-70
2021/09/09 04:50:40;;;;;;;16.77;10.02;;;;;;;13.91;52.20;101155.19;5040415;28;20029;-71
2021/09/09 04:53:05;;;;;;;13.77;10.00;;;;;;;13.98;52.25;101149.63;5040258;28;20033;-70
2021/09/09 04:55:31;;;;;;;20.98;10.40;;;;;;;13.99;52.43;101143.47;5041378;28;20080;-67
2021/09/09 04:57:56;;;;;;;17.05;10.63;;;;;;;13.99;52.45;101151.34;5039807;28;20040;-68
2021/09/09 05:00:22;;;;;;;21.90;10.35;;;;;;;14.02;52.65;101143.31;5038344;28;20114;-67
2021/09/09 05:02:47;;;;;;;13.00;8.73;;;;;;;14.14;52.72;101147.94;5038584;28;20044;-66
2021/09/09 05:05:13;;;;;;;17.63;9.73;;;;;;;14.14;52.39;101151.44;5039283;28;20507;-67
2021/09/09 05:07:39;;;;;;;17.60;9.65;;;;;;;14.15;52.39;101145.22;5038767;28;20237;-66
2021/09/09 05:10:05;;;;;;;16.88;10.20;;;;;;;14.16;52.55;101148.69;5039996;28;20580;-69
2021/09/09 05:12:31;;;;;;;15.50;10.60;;;;;;;14.20;52.91;101145.00;5040321;28;20085;-69
2021/09/09 05:14:58;;;;;;;18.65;11.48;;;;;;;14.27;52.57;101153.41;5040591;28;20497;-67
2021/09/09 05:17:24;;;;;;;18.13;11.95;;;;;;;14.23;52.73;101150.13;5040636;28;20028;-68
2021/09/09 05:19:49;;;;;;;17.38;10.57;;;;;;;14.37;52.31;101154.66;5037132;28;20025;-69
2021/09/09 05:22:15;;;;;;;14.82;10.10;;;;;;;14.34;52.29;101157.44;5040414;28;20453;-68
2021/09/09 05:24:41;;;;;;;23.23;12.98;;;;;;;14.43;52.15;101156.13;5040442;28;20043;-71
2021/09/09 05:27:06;;;;;;;16.70;10.73;;;;;;;14.43;52.15;101162.25;5039221;28;20043;-66
2021/09/09 05:29:32;;;;;;;16.52;9.77;;;;;;;14.47;52.19;101162.94;5039523;28;20449;-69
2021/09/09 05:31:57;;;;;;;15.73;10.07;;;;;;;14.61;51.88;101162.22;5038844;28;20041;-68
2021/09/09 05:34:23;;;;;;;17.30;10.73;;;;;;;14.55;51.73;101163.41;5039453;28;20055;-69
2021/09/09 05:36:48;;;;;;;16.35;11.23;;;;;;;14.61;51.70;101163.06;5041639;28;20463;-69
2021/09/09 05:39:14;;;;;;;21.08;11.40;;;;;;;14.64;51.74;101164.69;5037298;28;20056;-68
2021/09/09 05:41:39;;;;;;;17.05;11.05;;;;;;;14.69;51.57;101170.56;5023184;28;20090;-69
2021/09/09 05:44:05;;;;;;;16.85;10.88;;;;;;;14.75;51.45;101163.19;5039565;28;20117;-67
2021/09/09 05:46:32;;;;;;;16.33;11.18;;;;;;;14.86;50.99;101164.41;5040153;28;20021;-69
2021/09/09 05:48:58;;;;;;;20.30;10.93;;;;;;;14.92;50.99;101171.97;5042592;28;20079;-70
2021/09/09 05:51:23;;;;;;;16.20;10.30;;;;;;;15.05;50.93;101167.72;5039455;28;20029;-69
2021/09/09 05:53:49;;;;;;;18.10;10.75;;;;;;;15.34;50.69;101167.97;5040152;28;20436;-70
2021/09/09 05:56:15;;;;;;;14.85;9.73;;;;;;;16.97;47.15;101161.91;5035958;28;20033;-70
2021/09/09 05:58:40;;;;;;;17.17;10.25;;;;;;;18.84;41.89;101156.56;5041762;28;20495;-70
2021/09/09 06:01:06;;;;;;;13.85;9.27;;;;;;;19.98;39.47;101156.28;5039429;28;20099;-70
2021/09/09 06:03:33;;;;;;;15.75;9.32;;;;;;;20.86;36.92;101152.19;5057008;28;20041;-68
2021/09/09 06:06:04;;;;;;;13.52;8.77;;;;;;;21.72;35.72;101146.09;5039950;28;20029;-69
2021/09/09 06:08:34;;;;;;;;;;;;;;;22.39;33.93;101150.19;5038960;28;20033;-68
2021/09/09 06:11:00;;;;;;;10.95;7.82;;;;;;;23.12;32.49;101158.06;5039066;28;19913;-68
2021/09/09 06:13:26;;;;;;;10.88;7.70;;;;;;;23.39;30.62;101152.09;5040008;28;20425;-68
2021/09/09 06:15:51;;;;;;;18.42;9.77;;;;;;;24.16;30.26;101152.22;5041019;28;20091;-68
2021/09/09 06:18:17;;;;;;;11.43;8.15;;;;;;;24.70;29.54;101145.28;5036717;28;20075;-69
2021/09/09 06:20:42;;;;;;;16.60;9.25;;;;;;;25.15;29.61;101155.22;5041557;28;20033;-68
2021/09/09 06:23:08;;;;;;;13.55;9.45;;;;;;;25.25;27.78;101147.97;5048226;28;20390;-69
2021/09/09 06:25:33;;;;;;;15.63;8.48;;;;;;;25.80;27.77;101144.31;5055021;28;20154;-69
2021/09/09 06:27:59;;;;;;;13.73;8.88;;;;;;;25.59;27.68;101141.94;5037826;28;21724;-69
2021/09/09 06:30:24;;;;;;;11.77;7.65;;;;;;;25.51;27.70;101138.31;5037757;28;20040;-69
2021/09/09 06:32:50;;;;;;;10.93;7.63;;;;;;;25.73;26.63;101153.94;5038989;28;20079;-68
2021/09/09 06:35:15;;;;;;;9.65;7.63;;;;;;;26.36;26.63;101146.69;5039783;28;20147;-69
2021/09/09 06:37:41;;;;;;;10.73;8.65;;;;;;;26.09;27.54;101140.53;5038459;28;20044;-69
2021/09/09 06:40:08;;;;;;;12.32;8.82;;;;;;;26.23;26.65;101139.09;5037291;28;20040;-68
2021/09/09 06:42:33;;;;;;;11.00;8.50;;;;;;;25.64;27.22;101145.03;5038902;28;20033;-69
2021/09/09 06:44:59;;;;;;;15.18;8.45;;;;;;;26.26;26.80;101136.94;5039114;28;20395;-69
2021/09/09 06:47:24;;;;;;;16.70;9.13;;;;;;;26.60;27.12;101138.84;5038893;28;20040;-69
2021/09/09 06:49:49;;;;;;;11.32;9.07;;;;;;;26.67;26.41;101139.84;5036691;28;20041;-69
2021/09/09 06:52:15;;;;;;;13.38;9.23;;;;;;;26.41;26.48;101141.72;5039313;28;20041;-68
2021/09/09 06:54:41;;;;;;;12.98;9.38;;;;;;;26.56;26.64;101134.75;5037606;28;20033;-69
2021/09/09 06:57:07;;;;;;;12.20;8.60;;;;;;;26.76;26.57;101134.50;5037479;28;20325;-68
2021/09/09 06:59:32;;;;;;;12.60;9.50;;;;;;;27.63;25.17;101132.38;5037898;28;20106;-69
2021/09/09 07:01:58;;;;;;;13.18;9.77;;;;;;;27.21;25.64;101134.16;5037232;28;20374;-69
2021/09/09 07:04:23;;;;;;;17.25;9.65;;;;;;;26.75;25.56;101141.72;5035202;28;20409;-68
2021/09/09 07:06:49;;;;;;;12.85;8.88;;;;;;;26.91;25.85;101132.88;5041182;28;20033;-69
2021/09/09 07:09:14;;;;;;;11.60;8.90;;;;;;;27.55;25.30;101135.03;5034438;28;20029;-68
2021/09/09 07:11:40;;;;;;;13.65;9.13;;;;;;;28.04;24.74;101135.03;5037237;28;20041;-68
2021/09/09 07:14:05;;;;;;;12.95;9.05;;;;;;;27.90;24.48;101133.88;5038261;28;20036;-68
2021/09/09 07:16:31;;;;;;;16.17;8.75;;;;;;;27.97;24.44;101139.41;5038029;28;20032;-68
2021/09/09 07:18:56;;;;;;;13.35;9.60;;;;;;;27.66;24.23;101132.03;5035683;28;20630;-69
2021/09/09 07:21:22;;;;;;;15.98;9.30;;;;;;;27.95;24.47;101146.78;5035760;28;20056;-68
2021/09/09 07:23:47;;;;;;;13.23;9.35;;;;;;;28.04;24.05;101135.03;5038068;28;20129;-69
2021/09/09 07:26:13;;;;;;;11.45;9.27;;;;;;;27.99;24.32;101127.47;5037058;28;20468;-69
2021/09/09 07:28:38;;;;;;;13.20;9.57;;;;;;;27.83;24.11;101139.09;5035867;28;20387;-68
2021/09/09 07:31:04;;;;;;;14.18;9.57;;;;;;;27.43;25.23;101130.00;5037845;28;20028;-69
2021/09/09 07:33:29;;;;;;;19.23;9.70;;;;;;;28.04;24.80;101124.28;5035188;28;20516;-70
2021/09/09 07:35:55;;;;;;;14.68;10.02;;;;;;;27.84;25.29;101119.25;5040262;28;20123;-69
2021/09/09 07:38:20;;;;;;;13.80;9.80;;;;;;;28.56;24.15;101113.03;5037409;28;20069;-68
2021/09/09 07:40:45;;;;;;;12.68;9.07;;;;;;;28.85;24.23;101122.34;5036325;28;20132;-68
2021/09/09 07:43:11;;;;;;;10.60;8.75;;;;;;;29.72;23.22;101114.00;5038994;28;20418;-68
2021/09/09 07:45:36;;;;;;;11.75;8.40;;;;;;;29.93;22.15;101121.38;5043549;28;20033;-68
2021/09/09 07:48:02;;;;;;;12.15;7.85;;;;;;;29.94;22.82;101123.06;5017588;28;20036;-69
2021/09/09 07:50:28;;;;;;;13.43;10.30;;;;;;;29.88;22.39;101111.16;5037120;28;20051;-69
2021/09/09 07:52:53;;;;;;;12.70;8.77;;;;;;;30.27;22.24;101107.41;5037964;28;20036;-69
2021/09/09 07:55:19;;;;;;;13.77;9.43;;;;;;;30.23;22.19;101114.19;5035741;28;20643;-69
2021/09/09 07:57:45;;;;;;;13.82;9.80;;;;;;;29.97;22.22;101110.06;5039692;28;20092;-69
2021/09/09 08:00:13;;;;;;;14.13;9.30;;;;;;;29.66;21.89;101109.34;5037612;28;20044;-69
2021/09/09 08:02:39;;;;;;;18.67;9.10;;;;;;;29.57;22.99;101105.84;5037614;28;20040;-69
2021/09/09 08:05:05;;;;;;;12.57;8.65;;;;;;;29.54;22.52;101106.22;5039213;28;20425;-68
2021/09/09 08:07:44;;;;;;;12.27;9.77;;;;;;;29.54;23.16;101104.38;5038632;28;20039;-70
2021/09/09 08:10:13;;;;;;;11.07;8.02;;;;;;;29.53;22.94;101108.09;5036873;28;20052;-68
2021/09/09 08:12:39;;;;;;;15.45;8.43;;;;;;;29.79;22.74;101109.56;5037876;28;20030;-69
2021/09/09 08:15:07;;;;;;;12.95;9.88;;;;;;;30.61;22.19;101111.38;5039783;28;20045;-68
2021/09/09 08:17:32;;;;;;;14.85;8.63;;;;;;;30.58;21.70;101109.91;5039525;28;20171;-70
2021/09/09 08:19:58;;;;;;;14.85;9.23;;;;;;;30.53;22.10;101111.44;5043074;28;20041;-69
2021/09/09 08:22:23;;;;;;;12.48;8.52;;;;;;;31.02;22.46;101110.81;5038404;28;20044;-69
2021/09/09 08:24:49;;;;;;;10.70;8.60;;;;;;;30.92;21.60;101105.72;5041573;28;20129;-68
2021/09/09 08:27:14;;;;;;;14.32;9.15;;;;;;;31.19;21.65;101104.13;5037646;28;20040;-68
2021/09/09 08:29:40;;;;;;;17.17;8.07;;;;;;;31.50;21.35;101108.41;5042282;28;20078;-69
2021/09/09 08:32:05;;;;;;;11.20;8.82;;;;;;;30.83;21.61;101109.56;5041622;28;20192;-69
2021/09/09 08:34:31;;;;;;;13.70;9.95;;;;;;;30.01;22.29;101101.59;5040934;28;20402;-69
2021/09/09 08:36:56;;;;;;;12.90;9.57;;;;;;;29.96;22.69;101108.38;5038775;28;20077;-68
2021/09/09 08:39:24;;;;;;;13.27;8.75;;;;;;;30.38;23.39;101108.78;5040336;28;20512;-68
2021/09/09 08:41:50;;;;;;;12.45;9.35;;;;;;;30.81;22.82;101098.13;5058082;28;20046;-69
2021/09/09 08:44:15;;;;;;;13.02;9.85;;;;;;;30.67;22.43;101107.94;5041110;28;20044;-69
2021/09/09 08:46:43;;;;;;;14.60;9.75;;;;;;;29.89;23.02;101098.53;5041161;28;20095;-68
2021/09/09 08:49:08;;;;;;;12.50;10.23;;;;;;;29.63;23.42;101109.72;5038439;28;20501;-69
2021/09/09 08:51:34;;;;;;;12.23;9.32;;;;;;;29.62;23.75;101105.34;5042850;28;20059;-69
2021/09/09 08:54:01;;;;;;;12.38;8.55;;;;;;;29.07;25.29;101097.31;5041054;28;20037;-68
2021/09/09 08:56:26;;;;;;;11.70;9.02;;;;;;;28.02;25.19;101102.13;5043978;28;20037;-69
2021/09/09 08:58:52;;;;;;;15.13;9.10;;;;;;;27.20;27.06;101094.06;5039784;28;20082;-69
2021/09/09 09:01:18;;;;;;;12.48;9.15;;;;;;;27.16;27.14;101096.28;5041070;28;20486;-68
2021/09/09 09:03:50;;;;;;;13.50;9.63;;;;;;;26.76;27.53;101094.28;5041180;28;20036;-69
2021/09/09 09:06:21;;;;;;;;;;;;;;;27.06;28.65;101096.38;5042419;28;20044;-69
2021/09/09 09:08:57;;;;;;;15.73;10.30;;;;;;;27.30;27.74;101095.59;5042424;28;19923;-69
2021/09/09 09:11:34;;;;;;;15.48;10.27;;;;;;;27.40;26.90;101099.97;5039459;28;20070;-69
2021/09/09 09:14:00;;;;;;;12.88;9.38;;;;;;;27.59;26.28;101091.56;5039052;28;20491;-69
2021/09/09 09:16:30;;;;;;;13.10;9.95;;;;;;;26.92;27.04;101097.03;5037138;28;20033;-69
2021/09/09 09:19:01;;;;;;;14.75;10.45;;;;;;;27.10;27.61;101089.72;5040398;28;20033;-67
2021/09/09 09:21:27;;;;;;;;;;;;;;;26.82;27.54;101094.47;5041824;28;20045;-67
2021/09/09 09:24:02;;;;;;;12.52;9.07;;;;;;;26.85;27.40;101087.97;5041333;28;20058;-73
2021/09/09 09:26:27;;;;;;;14.23;9.63;;;;;;;27.03;28.55;101090.53;5041351;28;20056;-72
2021/09/09 09:28:59;;;;;;;14.30;9.60;;;;;;;26.73;27.98;101083.91;5042903;28;20064;-73
2021/09/09 09:31:30;;;;;;;13.98;10.00;;;;;;;26.58;28.47;101084.53;5041136;28;20043;-73
2021/09/09 09:34:00;;;;;;;14.43;9.10;;;;;;;26.50;28.87;101087.16;5040441;28;20119;-73
2021/09/09 09:36:37;;;;;;;14.32;9.85;;;;;;;27.14;28.46;101089.38;5039333;28;20067;-70
2021/09/09 09:39:09;;;;;;;14.52;9.23;;;;;;;27.38;27.14;101081.34;5040823;28;20045;-71
2021/09/09 09:41:36;;;;;;;19.08;10.20;;;;;;;27.24;27.49;101082.00;5039869;28;20044;-70
2021/09/09 09:44:07;;;;;;;14.68;9.32;;;;;;;27.35;27.02;101089.72;5039216;28;20033;-71
2021/09/09 09:46:39;;;;;;;13.45;8.93;;;;;;;27.73;27.30;101084.72;5037570;28;20045;-70
2021/09/09 09:49:29;;;;;;;13.77;8.80;;;;;;;27.40;27.27;101092.75;5038817;28;20063;-70
2021/09/09 09:51:57;;;;;;;12.07;7.93;;;;;;;27.27;27.78;101085.22;5039116;28;20032;-70
2021/09/09 09:54:26;;;;;;;13.23;9.85;;;;;;;26.93;26.91;101087.97;5040767;28;20037;-70
2021/09/09 09:56:54;;;;;;;13.02;9.07;;;;;;;27.14;27.57;101079.50;5037455;28;20060;-70
2021/09/09 09:59:19;;;;;;;12.00;9.93;;;;;;;27.39;27.08;101083.03;5041514;28;20025;-69
2021/09/09 10:01:46;;;;;;;11.50;9.05;;;;;;;27.26;27.50;101074.63;5042461;28;20074;-70
2021/09/09 10:04:15;;;;;;;17.05;9.07;;;;;;;27.54;26.50;101080.53;5038902;28;20064;-70
2021/09/09 10:06:42;;;;;;;15.23;9.20;;;;;;;27.72;26.99;101073.13;5042414;28;20044;-69
2021/09/09 10:09:08;;;;;;;10.00;8.77;;;;;;;27.40;26.92;101068.59;5038597;28;20029;-70
2021/09/09 10:11:34;;;;;;;14.18;10.55;;;;;;;27.20;27.53;101067.25;5039702;28;20056;-70
2021/09/09 10:14:02;;;;;;;14.30;9.93;;;;;;;27.22;27.93;101065.25;5045371;28;20056;-70
2021/09/09 10:16:31;;;;;;;15.65;10.38;;;;;;;27.21;28.13;101066.25;5038028;28;20504;-70
2021/09/09 10:18:57;;;;;;;13.77;10.40;;;;;;;27.43;27.78;101073.63;5056314;28;20490;-70
2021/09/09 10:21:45;;;;;;;13.73;9.77;;;;;;;26.84;28.26;101072.88;5036090;28;20043;-71
2021/09/09 10:24:19;;;;;;;14.45;10.45;;;;;;;27.25;27.65;101070.25;5038107;28;20033;-70
2021/09/09 10:26:48;;;;;;;17.13;9.48;;;;;;;27.81;28.29;101068.59;5038931;28;20036;-71
2021/09/09 10:29:48;;;;;;;11.32;8.55;;;;;;;28.40;27.04;101059.34;5037840;28;20032;-70
2021/09/09 10:32:32;;;;;;;11.68;10.15;;;;;;;28.08;27.92;101061.13;5031387;28;20080;-70
2021/09/09 10:35:15;;;;;;;15.88;10.63;;;;;;;27.89;26.82;101065.03;5039392;28;20128;-70
2021/09/09 10:38:10;;;;;;;14.68;10.02;;;;;;;27.81;26.88;101065.03;5040402;28;20105;-70
2021/09/09 10:40:39;;;;;;;16.27;9.75;;;;;;;28.09;26.42;101060.94;5035389;28;20076;-70
2021/09/09 10:43:12;;;;;;;13.02;10.57;;;;;;;28.29;27.27;101053.34;5037745;28;20413;-71
2021/09/09 10:45:39;;;;;;;12.60;10.10;;;;;;;28.18;27.66;101048.34;5045378;28;20040;-71
2021/09/09 10:48:24;;;;;;;13.70;10.15;;;;;;;28.08;27.17;101048.53;5041209;28;20139;-70
2021/09/09 10:51:09;;;;;;;12.00;9.82;;;;;;;27.68;27.94;101046.81;5039237;28;20081;-71
2021/09/09 10:53:35;;;;;;;13.57;10.20;;;;;;;28.13;28.41;101040.00;5038480;28;20021;-71
2021/09/09 10:56:18;;;;;;;17.35;11.75;;;;;;;27.87;27.15;101038.34;5039754;28;20086;-71
2021/09/09 10:58:44;;;;;;;14.10;9.95;;;;;;;27.56;27.84;101040.06;5040537;28;20029;-70
2021/09/09 11:01:11;;;;;;;13.05;9.60;;;;;;;27.95;28.08;101040.19;5050013;28;20048;-71
2021/09/09 11:03:46;;;;;;;15.80;10.80;;;;;;;28.11;27.83;101031.22;5055625;28;20026;-70
2021/09/09 11:06:25;;;;;;;14.48;10.10;;;;;;;28.46;26.46;101031.78;5043620;28;20033;-71
2021/09/09 11:08:53;;;;;;;13.65;9.57;;;;;;;28.94;26.42;101022.56;5059715;28;20056;-71
2021/09/09 11:11:23;;;;;;;13.77;10.05;;;;;;;28.81;26.17;101029.56;5052116;28;20039;-71
2021/09/09 11:14:03;;;;;;;18.00;8.55;;;;;;;29.00;26.59;101021.03;5059365;28;20081;-72
2021/09/09 11:16:30;;;;;;;10.53;8.70;;;;;;;28.69;25.94;101024.59;5056512;28;20044;-71